sensor_id;sensor_type;location;lat;lon;timestamp;P1;durP1;ratioP1;P2;durP2;ratioP2
10535;SDS011;5316;49.538;8.352;2024-03-08T00:01:06;20.27;;;14.73;;
10535;SDS011;5316;49.538;8.352;2024-03-08T00:03:32;21.27;;;15.73;;
10535;SDS011;5316;49.538;8.352;2024-03-08T00:05:59;19.60;;;14.50;;
10535;SDS011;5316;49.538;8.352;2024-03-08T00:08:26;20.37;;;15.50;;
10535;SDS011;5316;49.538;8.352;2024-03-08T00:10:53;19.30;;;14.23;;
10535;SDS011;5316;49.538;8.352;2024-03-08T00:13:21;20.63;;;14.20;;
10535;SDS011;5316;49.538;8.352;2024-03-08T00:15:50;19.80;;;14.43;;
10535;SDS011;5316;49.538;8.352;2024-03-08T00:18:16;18.90;;;14.90;;
10535;SDS011;5316;49.538;8.352;2024-03-08T00:20:43;20.37;;;14.77;;
10535;SDS011;5316;49.538;8.352;2024-03-08T00:23:10;19.37;;;14.40;;
10535;SDS011;5316;49.538;8.352;2024-03-08T00:25:37;21.53;;;15.20;;
10535;SDS011;5316;49.538;8.352;2024-03-08T00:28:04;21.93;;;15.73;;
10535;SDS011;5316;49.538;8.352;2024-03-08T00:30:32;22.30;;;15.60;;
10535;SDS011;5316;49.538;8.352;2024-03-08T00:32:59;22.43;;;15.97;;
10535;SDS011;5316;49.538;8.352;2024-03-08T00:35:26;24.33;;;16.33;;
10535;SDS011;5316;49.538;8.352;2024-03-08T00:37:53;24.63;;;16.30;;
10535;SDS011;5316;49.538;8.352;2024-03-08T00:40:21;25.20;;;16.83;;
10535;SDS011;5316;49.538;8.352;2024-03-08T00:42:48;25.93;;;17.63;;
10535;SDS011;5316;49.538;8.352;2024-03-08T00:47:47;24.87;;;16.47;;
10535;SDS011;5316;49.538;8.352;2024-03-08T00:50:13;24.33;;;16.30;;
10535;SDS011;5316;49.538;8.352;2024-03-08T00:52:40;22.27;;;16.00;;
10535;SDS011;5316;49.538;8.352;2024-03-08T00:55:07;24.53;;;15.70;;
10535;SDS011;5316;49.538;8.352;2024-03-08T00:57:35;22.37;;;16.07;;
10535;SDS011;5316;49.538;8.352;2024-03-08T01:00:04;27.97;;;17.37;;
10535;SDS011;5316;49.538;8.352;2024-03-08T01:02:34;28.47;;;16.93;;
10535;SDS011;5316;49.538;8.352;2024-03-08T01:05:02;25.97;;;17.07;;
10535;SDS011;5316;49.538;8.352;2024-03-08T01:07:32;25.17;;;17.00;;
10535;SDS011;5316;49.538;8.352;2024-03-08T01:09:59;26.20;;;17.07;;
10535;SDS011;5316;49.538;8.352;2024-03-08T01:12:26;27.60;;;17.20;;
10535;SDS011;5316;49.538;8.352;2024-03-08T01:14:53;26.30;;;17.60;;
10535;SDS011;5316;49.538;8.352;2024-03-08T01:17:20;32.03;;;17.57;;
10535;SDS011;5316;49.538;8.352;2024-03-08T01:19:46;22.40;;;15.97;;
10535;SDS011;5316;49.538;8.352;2024-03-08T01:22:14;23.90;;;16.07;;
10535;SDS011;5316;49.538;8.352;2024-03-08T01:24:41;24.30;;;16.67;;
10535;SDS011;5316;49.538;8.352;2024-03-08T01:27:08;24.20;;;16.90;;
10535;SDS011;5316;49.538;8.352;2024-03-08T01:29:35;22.47;;;15.70;;
10535;SDS011;5316;49.538;8.352;2024-03-08T01:32:02;24.80;;;16.67;;
10535;SDS011;5316;49.538;8.352;2024-03-08T01:34:29;27.13;;;17.03;;
10535;SDS011;5316;49.538;8.352;2024-03-08T01:36:56;25.17;;;16.30;;
10535;SDS011;5316;49.538;8.352;2024-03-08T01:39:24;23.40;;;16.17;;
10535;SDS011;5316;49.538;8.352;2024-03-08T01:41:51;23.73;;;16.23;;
10535;SDS011;5316;49.538;8.352;2024-03-08T01:44:19;24.77;;;16.97;;
10535;SDS011;5316;49.538;8.352;2024-03-08T01:46:45;25.53;;;16.10;;
10535;SDS011;5316;49.538;8.352;2024-03-08T01:49:13;27.87;;;17.73;;
10535;SDS011;5316;49.538;8.352;2024-03-08T01:51:43;26.23;;;17.20;;
10535;SDS011;5316;49.538;8.352;2024-03-08T01:54:10;26.43;;;17.10;;
10535;SDS011;5316;49.538;8.352;2024-03-08T01:56:39;25.50;;;16.53;;
10535;SDS011;5316;49.538;8.352;2024-03-08T01:59:06;27.57;;;16.97;;
10535;SDS011;5316;49.538;8.352;2024-03-08T02:01:34;24.70;;;16.73;;
10535;SDS011;5316;49.538;8.352;2024-03-08T02:04:01;26.97;;;17.03;;
10535;SDS011;5316;49.538;8.352;2024-03-08T02:06:27;28.00;;;17.27;;
10535;SDS011;5316;49.538;8.352;2024-03-08T02:08:54;23.57;;;17.00;;
10535;SDS011;5316;49.538;8.352;2024-03-08T02:11:21;26.77;;;17.60;;
10535;SDS011;5316;49.538;8.352;2024-03-08T02:13:49;24.63;;;15.93;;
10535;SDS011;5316;49.538;8.352;2024-03-08T02:16:20;26.60;;;16.40;;
10535;SDS011;5316;49.538;8.352;2024-03-08T02:18:47;27.00;;;17.90;;
10535;SDS011;5316;49.538;8.352;2024-03-08T02:21:16;24.63;;;16.70;;
10535;SDS011;5316;49.538;8.352;2024-03-08T02:23:44;26.80;;;17.60;;
10535;SDS011;5316;49.538;8.352;2024-03-08T02:26:11;26.20;;;17.00;;
10535;SDS011;5316;49.538;8.352;2024-03-08T02:28:37;22.03;;;16.03;;
10535;SDS011;5316;49.538;8.352;2024-03-08T02:31:08;20.03;;;14.77;;
10535;SDS011;5316;49.538;8.352;2024-03-08T02:33:34;22.37;;;15.80;;
10535;SDS011;5316;49.538;8.352;2024-03-08T02:36:01;19.37;;;14.53;;
10535;SDS011;5316;49.538;8.352;2024-03-08T02:38:30;20.43;;;16.07;;
10535;SDS011;5316;49.538;8.352;2024-03-08T02:40:56;21.37;;;14.80;;
10535;SDS011;5316;49.538;8.352;2024-03-08T02:43:23;21.13;;;15.00;;
10535;SDS011;5316;49.538;8.352;2024-03-08T02:45:50;19.10;;;14.90;;
10535;SDS011;5316;49.538;8.352;2024-03-08T02:48:18;20.53;;;14.80;;
10535;SDS011;5316;49.538;8.352;2024-03-08T02:50:46;17.10;;;13.77;;
10535;SDS011;5316;49.538;8.352;2024-03-08T02:53:13;18.87;;;13.77;;
10535;SDS011;5316;49.538;8.352;2024-03-08T02:55:41;19.30;;;15.10;;
10535;SDS011;5316;49.538;8.352;2024-03-08T02:58:08;18.37;;;14.33;;
10535;SDS011;5316;49.538;8.352;2024-03-08T03:00:36;19.50;;;14.37;;
10535;SDS011;5316;49.538;8.352;2024-03-08T03:03:03;20.53;;;15.00;;
10535;SDS011;5316;49.538;8.352;2024-03-08T03:05:31;19.73;;;15.30;;
10535;SDS011;5316;49.538;8.352;2024-03-08T03:07:58;18.53;;;14.13;;
10535;SDS011;5316;49.538;8.352;2024-03-08T03:10:25;21.10;;;14.33;;
10535;SDS011;5316;49.538;8.352;2024-03-08T03:12:53;19.50;;;14.30;;
10535;SDS011;5316;49.538;8.352;2024-03-08T03:15:20;19.23;;;13.60;;
10535;SDS011;5316;49.538;8.352;2024-03-08T03:17:47;20.33;;;14.50;;
10535;SDS011;5316;49.538;8.352;2024-03-08T03:20:16;15.70;;;12.37;;
10535;SDS011;5316;49.538;8.352;2024-03-08T03:22:48;18.50;;;13.53;;
10535;SDS011;5316;49.538;8.352;2024-03-08T03:25:16;20.70;;;13.87;;
10535;SDS011;5316;49.538;8.352;2024-03-08T03:27:48;18.43;;;13.23;;
10535;SDS011;5316;49.538;8.352;2024-03-08T03:30:17;18.13;;;12.70;;
10535;SDS011;5316;49.538;8.352;2024-03-08T03:32:47;18.30;;;13.53;;
10535;SDS011;5316;49.538;8.352;2024-03-08T03:35:14;17.47;;;13.27;;
10535;SDS011;5316;49.538;8.352;2024-03-08T03:37:42;18.13;;;13.17;;
10535;SDS011;5316;49.538;8.352;2024-03-08T03:40:11;19.17;;;13.77;;
10535;SDS011;5316;49.538;8.352;2024-03-08T03:42:39;17.00;;;13.40;;
10535;SDS011;5316;49.538;8.352;2024-03-08T03:45:06;16.73;;;12.90;;
10535;SDS011;5316;49.538;8.352;2024-03-08T03:47:35;17.77;;;13.43;;
10535;SDS011;5316;49.538;8.352;2024-03-08T03:50:03;21.03;;;13.77;;
10535;SDS011;5316;49.538;8.352;2024-03-08T03:52:31;22.33;;;14.17;;
10535;SDS011;5316;49.538;8.352;2024-03-08T03:54:58;22.23;;;14.63;;
10535;SDS011;5316;49.538;8.352;2024-03-08T03:57:25;25.83;;;15.23;;
10535;SDS011;5316;49.538;8.352;2024-03-08T03:59:51;27.97;;;16.17;;
10535;SDS011;5316;49.538;8.352;2024-03-08T04:02:18;28.63;;;16.33;;
10535;SDS011;5316;49.538;8.352;2024-03-08T04:04:46;32.07;;;17.47;;
10535;SDS011;5316;49.538;8.352;2024-03-08T04:07:14;23.33;;;15.20;;
10535;SDS011;5316;49.538;8.352;2024-03-08T04:09:41;26.63;;;17.13;;
10535;SDS011;5316;49.538;8.352;2024-03-08T04:12:08;25.93;;;16.33;;
10535;SDS011;5316;49.538;8.352;2024-03-08T04:14:35;28.90;;;15.70;;
10535;SDS011;5316;49.538;8.352;2024-03-08T04:17:02;26.97;;;16.73;;
10535;SDS011;5316;49.538;8.352;2024-03-08T04:19:29;28.10;;;16.13;;
10535;SDS011;5316;49.538;8.352;2024-03-08T04:21:57;25.87;;;15.43;;
10535;SDS011;5316;49.538;8.352;2024-03-08T04:24:26;24.87;;;16.30;;
10535;SDS011;5316;49.538;8.352;2024-03-08T04:26:52;26.40;;;16.30;;
10535;SDS011;5316;49.538;8.352;2024-03-08T04:29:18;28.90;;;17.07;;
10535;SDS011;5316;49.538;8.352;2024-03-08T04:31:45;30.23;;;17.47;;
10535;SDS011;5316;49.538;8.352;2024-03-08T04:34:12;31.97;;;17.40;;
10535;SDS011;5316;49.538;8.352;2024-03-08T04:36:39;31.83;;;17.23;;
10535;SDS011;5316;49.538;8.352;2024-03-08T04:39:07;27.93;;;16.47;;
10535;SDS011;5316;49.538;8.352;2024-03-08T04:41:37;27.57;;;15.77;;
10535;SDS011;5316;49.538;8.352;2024-03-08T04:44:04;30.57;;;17.03;;
10535;SDS011;5316;49.538;8.352;2024-03-08T04:46:31;30.03;;;17.47;;
10535;SDS011;5316;49.538;8.352;2024-03-08T04:49:00;28.10;;;16.57;;
10535;SDS011;5316;49.538;8.352;2024-03-08T04:51:27;29.37;;;16.60;;
10535;SDS011;5316;49.538;8.352;2024-03-08T04:53:53;28.20;;;16.93;;
10535;SDS011;5316;49.538;8.352;2024-03-08T04:56:23;29.93;;;16.67;;
10535;SDS011;5316;49.538;8.352;2024-03-08T04:58:50;24.70;;;16.40;;
10535;SDS011;5316;49.538;8.352;2024-03-08T05:01:17;21.77;;;15.73;;
10535;SDS011;5316;49.538;8.352;2024-03-08T05:03:44;25.07;;;16.97;;
10535;SDS011;5316;49.538;8.352;2024-03-08T05:06:12;25.77;;;15.47;;
10535;SDS011;5316;49.538;8.352;2024-03-08T05:08:39;25.97;;;16.90;;
10535;SDS011;5316;49.538;8.352;2024-03-08T05:11:06;21.90;;;16.10;;
10535;SDS011;5316;49.538;8.352;2024-03-08T05:13:34;28.57;;;17.90;;
10535;SDS011;5316;49.538;8.352;2024-03-08T05:16:00;28.10;;;17.33;;
10535;SDS011;5316;49.538;8.352;2024-03-08T05:18:27;25.67;;;16.60;;
10535;SDS011;5316;49.538;8.352;2024-03-08T05:20:54;25.60;;;16.70;;
10535;SDS011;5316;49.538;8.352;2024-03-08T05:23:20;28.47;;;17.17;;
10535;SDS011;5316;49.538;8.352;2024-03-08T05:25:47;24.23;;;16.10;;
10535;SDS011;5316;49.538;8.352;2024-03-08T05:28:14;27.80;;;16.87;;
10535;SDS011;5316;49.538;8.352;2024-03-08T05:30:42;24.07;;;16.60;;
10535;SDS011;5316;49.538;8.352;2024-03-08T05:33:09;21.77;;;15.43;;
10535;SDS011;5316;49.538;8.352;2024-03-08T05:35:36;22.70;;;16.10;;
10535;SDS011;5316;49.538;8.352;2024-03-08T05:38:03;23.63;;;17.47;;
10535;SDS011;5316;49.538;8.352;2024-03-08T05:40:30;24.50;;;16.67;;
10535;SDS011;5316;49.538;8.352;2024-03-08T05:42:57;23.33;;;16.17;;
10535;SDS011;5316;49.538;8.352;2024-03-08T05:45:24;21.37;;;16.77;;
10535;SDS011;5316;49.538;8.352;2024-03-08T05:47:52;22.63;;;16.70;;
10535;SDS011;5316;49.538;8.352;2024-03-08T05:50:19;23.50;;;15.77;;
10535;SDS011;5316;49.538;8.352;2024-03-08T05:52:47;21.63;;;15.57;;
10535;SDS011;5316;49.538;8.352;2024-03-08T05:55:14;23.97;;;16.20;;
10535;SDS011;5316;49.538;8.352;2024-03-08T05:57:41;25.43;;;16.27;;
10535;SDS011;5316;49.538;8.352;2024-03-08T06:00:09;21.80;;;16.13;;
10535;SDS011;5316;49.538;8.352;2024-03-08T06:02:36;21.47;;;16.60;;
10535;SDS011;5316;49.538;8.352;2024-03-08T06:05:07;22.67;;;16.30;;
10535;SDS011;5316;49.538;8.352;2024-03-08T06:07:35;24.63;;;17.00;;
10535;SDS011;5316;49.538;8.352;2024-03-08T06:10:05;21.10;;;15.67;;
10535;SDS011;5316;49.538;8.352;2024-03-08T06:12:35;23.90;;;16.97;;
10535;SDS011;5316;49.538;8.352;2024-03-08T06:15:06;23.03;;;16.43;;
10535;SDS011;5316;49.538;8.352;2024-03-08T06:17:34;22.93;;;16.03;;
10535;SDS011;5316;49.538;8.352;2024-03-08T06:20:01;29.50;;;18.77;;
10535;SDS011;5316;49.538;8.352;2024-03-08T06:22:30;23.73;;;16.23;;
10535;SDS011;5316;49.538;8.352;2024-03-08T06:24:57;22.20;;;16.00;;
10535;SDS011;5316;49.538;8.352;2024-03-08T06:27:23;23.03;;;15.63;;
10535;SDS011;5316;49.538;8.352;2024-03-08T06:29:50;24.93;;;16.10;;
10535;SDS011;5316;49.538;8.352;2024-03-08T06:32:17;23.27;;;16.80;;
10535;SDS011;5316;49.538;8.352;2024-03-08T06:34:44;23.47;;;16.50;;
10535;SDS011;5316;49.538;8.352;2024-03-08T06:37:10;22.17;;;15.73;;
10535;SDS011;5316;49.538;8.352;2024-03-08T06:39:38;26.00;;;17.77;;
10535;SDS011;5316;49.538;8.352;2024-03-08T06:42:05;24.43;;;16.50;;
10535;SDS011;5316;49.538;8.352;2024-03-08T06:44:34;23.00;;;16.30;;
10535;SDS011;5316;49.538;8.352;2024-03-08T06:47:01;22.93;;;16.77;;
10535;SDS011;5316;49.538;8.352;2024-03-08T06:49:27;26.23;;;17.13;;
10535;SDS011;5316;49.538;8.352;2024-03-08T06:51:54;24.40;;;16.93;;
10535;SDS011;5316;49.538;8.352;2024-03-08T06:54:22;26.77;;;17.20;;
10535;SDS011;5316;49.538;8.352;2024-03-08T06:56:51;25.23;;;17.43;;
10535;SDS011;5316;49.538;8.352;2024-03-08T06:59:18;23.43;;;16.43;;
10535;SDS011;5316;49.538;8.352;2024-03-08T07:01:44;23.43;;;16.80;;
10535;SDS011;5316;49.538;8.352;2024-03-08T07:04:11;27.23;;;18.93;;
10535;SDS011;5316;49.538;8.352;2024-03-08T07:06:38;28.50;;;19.83;;
10535;SDS011;5316;49.538;8.352;2024-03-08T07:09:05;23.87;;;17.10;;
10535;SDS011;5316;49.538;8.352;2024-03-08T07:11:32;22.43;;;16.53;;
10535;SDS011;5316;49.538;8.352;2024-03-08T07:14:01;24.30;;;16.90;;
10535;SDS011;5316;49.538;8.352;2024-03-08T07:16:30;26.37;;;17.43;;
10535;SDS011;5316;49.538;8.352;2024-03-08T07:18:57;24.70;;;16.50;;
10535;SDS011;5316;49.538;8.352;2024-03-08T07:21:24;25.63;;;17.00;;
10535;SDS011;5316;49.538;8.352;2024-03-08T07:23:51;25.30;;;16.27;;
10535;SDS011;5316;49.538;8.352;2024-03-08T07:26:38;25.33;;;16.17;;
10535;SDS011;5316;49.538;8.352;2024-03-08T07:29:06;22.33;;;16.83;;
10535;SDS011;5316;49.538;8.352;2024-03-08T07:31:33;33.53;;;23.40;;
10535;SDS011;5316;49.538;8.352;2024-03-08T07:34:10;23.43;;;16.97;;
10535;SDS011;5316;49.538;8.352;2024-03-08T07:36:38;23.90;;;16.67;;
10535;SDS011;5316;49.538;8.352;2024-03-08T07:39:05;25.77;;;17.53;;
10535;SDS011;5316;49.538;8.352;2024-03-08T07:41:36;22.93;;;18.03;;
10535;SDS011;5316;49.538;8.352;2024-03-08T07:44:06;26.43;;;16.87;;
10535;SDS011;5316;49.538;8.352;2024-03-08T07:46:33;26.17;;;17.20;;
10535;SDS011;5316;49.538;8.352;2024-03-08T07:49:00;26.60;;;18.17;;
10535;SDS011;5316;49.538;8.352;2024-03-08T07:51:26;30.30;;;19.77;;
10535;SDS011;5316;49.538;8.352;2024-03-08T07:53:53;25.37;;;16.97;;
10535;SDS011;5316;49.538;8.352;2024-03-08T07:56:20;23.20;;;16.20;;
10535;SDS011;5316;49.538;8.352;2024-03-08T07:58:47;22.87;;;15.77;;
10535;SDS011;5316;49.538;8.352;2024-03-08T08:01:19;23.77;;;17.83;;
10535;SDS011;5316;49.538;8.352;2024-03-08T08:03:46;24.20;;;17.47;;
10535;SDS011;5316;49.538;8.352;2024-03-08T08:06:14;22.13;;;16.40;;
10535;SDS011;5316;49.538;8.352;2024-03-08T08:08:41;26.93;;;17.77;;
10535;SDS011;5316;49.538;8.352;2024-03-08T08:11:08;22.53;;;16.47;;
10535;SDS011;5316;49.538;8.352;2024-03-08T08:13:36;25.40;;;16.43;;
10535;SDS011;5316;49.538;8.352;2024-03-08T08:16:04;22.57;;;15.67;;
10535;SDS011;5316;49.538;8.352;2024-03-08T08:18:33;19.73;;;15.13;;
10535;SDS011;5316;49.538;8.352;2024-03-08T08:21:01;20.23;;;15.20;;
10535;SDS011;5316;49.538;8.352;2024-03-08T08:23:27;16.90;;;13.63;;
10535;SDS011;5316;49.538;8.352;2024-03-08T08:25:54;19.87;;;14.57;;
10535;SDS011;5316;49.538;8.352;2024-03-08T08:28:21;18.20;;;14.10;;
10535;SDS011;5316;49.538;8.352;2024-03-08T08:30:49;19.57;;;14.03;;
10535;SDS011;5316;49.538;8.352;2024-03-08T08:33:16;22.00;;;14.30;;
10535;SDS011;5316;49.538;8.352;2024-03-08T08:35:44;19.70;;;14.07;;
10535;SDS011;5316;49.538;8.352;2024-03-08T08:38:12;18.30;;;13.30;;
10535;SDS011;5316;49.538;8.352;2024-03-08T08:40:40;19.97;;;13.63;;
10535;SDS011;5316;49.538;8.352;2024-03-08T08:43:07;21.17;;;15.37;;
10535;SDS011;5316;49.538;8.352;2024-03-08T08:45:33;20.33;;;14.57;;
10535;SDS011;5316;49.538;8.352;2024-03-08T08:48:01;18.40;;;14.13;;
10535;SDS011;5316;49.538;8.352;2024-03-08T08:50:28;21.67;;;15.20;;
10535;SDS011;5316;49.538;8.352;2024-03-08T08:52:56;20.50;;;15.30;;
10535;SDS011;5316;49.538;8.352;2024-03-08T08:55:23;21.73;;;15.90;;
10535;SDS011;5316;49.538;8.352;2024-03-08T08:57:51;18.73;;;15.50;;
10535;SDS011;5316;49.538;8.352;2024-03-08T09:00:18;20.43;;;14.60;;
10535;SDS011;5316;49.538;8.352;2024-03-08T09:02:45;20.33;;;15.43;;
10535;SDS011;5316;49.538;8.352;2024-03-08T09:05:13;19.83;;;15.10;;
10535;SDS011;5316;49.538;8.352;2024-03-08T09:07:41;17.77;;;13.83;;
10535;SDS011;5316;49.538;8.352;2024-03-08T09:10:10;17.57;;;14.63;;
10535;SDS011;5316;49.538;8.352;2024-03-08T09:12:39;19.27;;;14.17;;
10535;SDS011;5316;49.538;8.352;2024-03-08T09:15:06;18.03;;;13.60;;
10535;SDS011;5316;49.538;8.352;2024-03-08T09:17:36;16.97;;;13.43;;
10535;SDS011;5316;49.538;8.352;2024-03-08T09:20:05;16.23;;;13.27;;
10535;SDS011;5316;49.538;8.352;2024-03-08T09:22:32;17.67;;;13.97;;
10535;SDS011;5316;49.538;8.352;2024-03-08T09:24:59;17.13;;;13.70;;
10535;SDS011;5316;49.538;8.352;2024-03-08T09:27:27;15.83;;;13.17;;
10535;SDS011;5316;49.538;8.352;2024-03-08T09:29:54;17.67;;;13.40;;
10535;SDS011;5316;49.538;8.352;2024-03-08T09:32:21;18.47;;;14.47;;
10535;SDS011;5316;49.538;8.352;2024-03-08T09:34:48;21.17;;;15.03;;
10535;SDS011;5316;49.538;8.352;2024-03-08T09:37:15;19.13;;;14.47;;
10535;SDS011;5316;49.538;8.352;2024-03-08T09:39:42;21.53;;;15.03;;
10535;SDS011;5316;49.538;8.352;2024-03-08T09:42:09;20.07;;;15.20;;
10535;SDS011;5316;49.538;8.352;2024-03-08T09:44:41;17.80;;;14.37;;
10535;SDS011;5316;49.538;8.352;2024-03-08T09:47:11;20.40;;;14.50;;
10535;SDS011;5316;49.538;8.352;2024-03-08T09:49:40;17.43;;;13.90;;
10535;SDS011;5316;49.538;8.352;2024-03-08T09:52:07;19.27;;;14.57;;
10535;SDS011;5316;49.538;8.352;2024-03-08T09:54:35;21.10;;;15.00;;
10535;SDS011;5316;49.538;8.352;2024-03-08T09:57:02;20.70;;;15.67;;
10535;SDS011;5316;49.538;8.352;2024-03-08T09:59:30;17.93;;;13.63;;
10535;SDS011;5316;49.538;8.352;2024-03-08T10:02:14;21.30;;;16.43;;
10535;SDS011;5316;49.538;8.352;2024-03-08T10:04:42;19.10;;;15.23;;
10535;SDS011;5316;49.538;8.352;2024-03-08T10:07:11;18.93;;;14.70;;
10535;SDS011;5316;49.538;8.352;2024-03-08T10:09:38;18.53;;;14.87;;
10535;SDS011;5316;49.538;8.352;2024-03-08T10:12:05;18.40;;;14.33;;
10535;SDS011;5316;49.538;8.352;2024-03-08T10:14:33;19.80;;;14.50;;
10535;SDS011;5316;49.538;8.352;2024-03-08T10:16:59;18.70;;;14.60;;
10535;SDS011;5316;49.538;8.352;2024-03-08T10:19:27;20.30;;;15.10;;
10535;SDS011;5316;49.538;8.352;2024-03-08T10:21:54;18.33;;;14.47;;
10535;SDS011;5316;49.538;8.352;2024-03-08T10:24:23;22.43;;;16.40;;
10535;SDS011;5316;49.538;8.352;2024-03-08T10:26:51;20.60;;;15.30;;
10535;SDS011;5316;49.538;8.352;2024-03-08T10:29:19;20.40;;;15.33;;
10535;SDS011;5316;49.538;8.352;2024-03-08T10:31:46;19.53;;;14.73;;
10535;SDS011;5316;49.538;8.352;2024-03-08T10:34:12;15.83;;;13.87;;
10535;SDS011;5316;49.538;8.352;2024-03-08T10:36:41;18.93;;;14.93;;
10535;SDS011;5316;49.538;8.352;2024-03-08T10:39:10;18.40;;;14.70;;
10535;SDS011;5316;49.538;8.352;2024-03-08T10:41:47;19.13;;;15.13;;
10535;SDS011;5316;49.538;8.352;2024-03-08T10:44:26;20.40;;;15.40;;
10535;SDS011;5316;49.538;8.352;2024-03-08T10:47:12;22.80;;;16.43;;
10535;SDS011;5316;49.538;8.352;2024-03-08T10:49:47;19.17;;;14.50;;
10535;SDS011;5316;49.538;8.352;2024-03-08T10:52:20;18.77;;;14.67;;
10535;SDS011;5316;49.538;8.352;2024-03-08T10:54:48;19.70;;;15.37;;
10535;SDS011;5316;49.538;8.352;2024-03-08T10:57:17;19.60;;;14.87;;
10535;SDS011;5316;49.538;8.352;2024-03-08T10:59:45;17.10;;;14.90;;
10535;SDS011;5316;49.538;8.352;2024-03-08T11:02:14;17.13;;;13.73;;
10535;SDS011;5316;49.538;8.352;2024-03-08T11:04:47;17.50;;;14.27;;
10535;SDS011;5316;49.538;8.352;2024-03-08T11:07:14;19.30;;;14.03;;
10535;SDS011;5316;49.538;8.352;2024-03-08T11:09:46;21.83;;;15.00;;
10535;SDS011;5316;49.538;8.352;2024-03-08T11:12:21;20.53;;;15.93;;
10535;SDS011;5316;49.538;8.352;2024-03-08T11:14:51;19.70;;;15.07;;
10535;SDS011;5316;49.538;8.352;2024-03-08T11:17:25;18.40;;;14.27;;
10535;SDS011;5316;49.538;8.352;2024-03-08T11:20:10;19.23;;;15.20;;
10535;SDS011;5316;49.538;8.352;2024-03-08T11:22:41;19.23;;;15.37;;
10535;SDS011;5316;49.538;8.352;2024-03-08T11:28:11;17.17;;;14.33;;
10535;SDS011;5316;49.538;8.352;2024-03-08T11:30:42;16.40;;;13.83;;
10535;SDS011;5316;49.538;8.352;2024-03-08T11:33:13;18.47;;;14.67;;
10535;SDS011;5316;49.538;8.352;2024-03-08T11:35:41;16.17;;;13.63;;
10535;SDS011;5316;49.538;8.352;2024-03-08T11:38:10;16.10;;;13.27;;
10535;SDS011;5316;49.538;8.352;2024-03-08T11:40:39;19.90;;;14.40;;
10535;SDS011;5316;49.538;8.352;2024-03-08T11:43:07;19.37;;;14.23;;
10535;SDS011;5316;49.538;8.352;2024-03-08T11:45:34;18.10;;;14.20;;
10535;SDS011;5316;49.538;8.352;2024-03-08T11:48:02;19.17;;;14.70;;
10535;SDS011;5316;49.538;8.352;2024-03-08T11:50:29;18.67;;;13.93;;
10535;SDS011;5316;49.538;8.352;2024-03-08T11:53:00;16.90;;;14.10;;
10535;SDS011;5316;49.538;8.352;2024-03-08T11:55:27;16.03;;;13.43;;
10535;SDS011;5316;49.538;8.352;2024-03-08T11:58:00;17.13;;;13.90;;
10535;SDS011;5316;49.538;8.352;2024-03-08T12:00:28;16.63;;;13.90;;
10535;SDS011;5316;49.538;8.352;2024-03-08T12:03:03;16.50;;;14.23;;
10535;SDS011;5316;49.538;8.352;2024-03-08T12:05:31;16.83;;;14.07;;
10535;SDS011;5316;49.538;8.352;2024-03-08T12:07:59;15.87;;;13.83;;
10535;SDS011;5316;49.538;8.352;2024-03-08T12:10:27;16.60;;;13.83;;
10535;SDS011;5316;49.538;8.352;2024-03-08T12:12:54;14.77;;;12.87;;
10535;SDS011;5316;49.538;8.352;2024-03-08T12:15:25;16.37;;;13.73;;
10535;SDS011;5316;49.538;8.352;2024-03-08T12:17:54;16.60;;;13.30;;
10535;SDS011;5316;49.538;8.352;2024-03-08T12:20:22;18.37;;;13.37;;
10535;SDS011;5316;49.538;8.352;2024-03-08T12:22:51;16.73;;;13.43;;
10535;SDS011;5316;49.538;8.352;2024-03-08T12:25:18;16.50;;;13.57;;
10535;SDS011;5316;49.538;8.352;2024-03-08T12:27:46;16.93;;;13.73;;
10535;SDS011;5316;49.538;8.352;2024-03-08T12:30:17;15.13;;;13.23;;
10535;SDS011;5316;49.538;8.352;2024-03-08T12:32:48;18.07;;;13.80;;
10535;SDS011;5316;49.538;8.352;2024-03-08T12:35:18;15.30;;;12.20;;
10535;SDS011;5316;49.538;8.352;2024-03-08T12:37:47;16.93;;;13.83;;
10535;SDS011;5316;49.538;8.352;2024-03-08T12:40:16;19.90;;;13.77;;
10535;SDS011;5316;49.538;8.352;2024-03-08T12:42:43;14.77;;;12.63;;
10535;SDS011;5316;49.538;8.352;2024-03-08T12:45:12;16.17;;;13.47;;
10535;SDS011;5316;49.538;8.352;2024-03-08T12:47:39;17.17;;;13.47;;
10535;SDS011;5316;49.538;8.352;2024-03-08T12:50:09;16.67;;;13.07;;
10535;SDS011;5316;49.538;8.352;2024-03-08T12:52:36;17.70;;;13.80;;
10535;SDS011;5316;49.538;8.352;2024-03-08T12:55:03;16.57;;;13.30;;
10535;SDS011;5316;49.538;8.352;2024-03-08T12:57:31;15.40;;;13.27;;
10535;SDS011;5316;49.538;8.352;2024-03-08T12:59:59;17.23;;;12.80;;
10535;SDS011;5316;49.538;8.352;2024-03-08T13:02:27;17.67;;;13.83;;
10535;SDS011;5316;49.538;8.352;2024-03-08T13:04:55;15.90;;;13.20;;
10535;SDS011;5316;49.538;8.352;2024-03-08T13:07:24;17.57;;;13.20;;
10535;SDS011;5316;49.538;8.352;2024-03-08T13:09:51;15.63;;;13.13;;
10535;SDS011;5316;49.538;8.352;2024-03-08T13:12:18;17.97;;;13.07;;
10535;SDS011;5316;49.538;8.352;2024-03-08T13:14:46;19.27;;;13.20;;
10535;SDS011;5316;49.538;8.352;2024-03-08T13:17:13;15.63;;;12.93;;
10535;SDS011;5316;49.538;8.352;2024-03-08T13:19:39;14.40;;;12.83;;
10535;SDS011;5316;49.538;8.352;2024-03-08T13:22:07;15.50;;;12.83;;
10535;SDS011;5316;49.538;8.352;2024-03-08T13:24:38;16.97;;;12.40;;
10535;SDS011;5316;49.538;8.352;2024-03-08T13:27:06;16.60;;;13.17;;
10535;SDS011;5316;49.538;8.352;2024-03-08T13:29:44;17.53;;;13.60;;
10535;SDS011;5316;49.538;8.352;2024-03-08T13:32:12;15.40;;;12.73;;
10535;SDS011;5316;49.538;8.352;2024-03-08T13:34:40;15.80;;;12.97;;
10535;SDS011;5316;49.538;8.352;2024-03-08T13:37:07;17.13;;;12.73;;
10535;SDS011;5316;49.538;8.352;2024-03-08T13:39:35;14.97;;;12.53;;
10535;SDS011;5316;49.538;8.352;2024-03-08T13:42:07;15.50;;;12.20;;
10535;SDS011;5316;49.538;8.352;2024-03-08T13:44:34;17.50;;;12.70;;
10535;SDS011;5316;49.538;8.352;2024-03-08T13:47:02;17.03;;;12.30;;
10535;SDS011;5316;49.538;8.352;2024-03-08T13:49:30;15.10;;;12.17;;
10535;SDS011;5316;49.538;8.352;2024-03-08T13:51:58;16.60;;;11.53;;
10535;SDS011;5316;49.538;8.352;2024-03-08T13:54:25;15.33;;;12.33;;
10535;SDS011;5316;49.538;8.352;2024-03-08T13:56:55;15.37;;;11.97;;
10535;SDS011;5316;49.538;8.352;2024-03-08T13:59:23;14.90;;;11.27;;
10535;SDS011;5316;49.538;8.352;2024-03-08T14:01:54;13.13;;;11.47;;
10535;SDS011;5316;49.538;8.352;2024-03-08T14:04:21;13.13;;;11.17;;
10535;SDS011;5316;49.538;8.352;2024-03-08T14:06:49;14.60;;;11.67;;
10535;SDS011;5316;49.538;8.352;2024-03-08T14:09:16;13.33;;;11.67;;
10535;SDS011;5316;49.538;8.352;2024-03-08T14:11:44;13.13;;;11.73;;
10535;SDS011;5316;49.538;8.352;2024-03-08T14:14:10;11.63;;;10.40;;
10535;SDS011;5316;49.538;8.352;2024-03-08T14:16:39;14.00;;;11.50;;
10535;SDS011;5316;49.538;8.352;2024-03-08T14:19:05;12.43;;;10.87;;
10535;SDS011;5316;49.538;8.352;2024-03-08T14:21:35;13.90;;;11.10;;
10535;SDS011;5316;49.538;8.352;2024-03-08T14:24:04;14.83;;;12.30;;
10535;SDS011;5316;49.538;8.352;2024-03-08T14:26:31;15.40;;;12.30;;
10535;SDS011;5316;49.538;8.352;2024-03-08T14:28:59;14.27;;;12.20;;
10535;SDS011;5316;49.538;8.352;2024-03-08T14:31:25;14.53;;;12.27;;
10535;SDS011;5316;49.538;8.352;2024-03-08T14:33:54;13.93;;;12.50;;
10535;SDS011;5316;49.538;8.352;2024-03-08T14:36:22;13.07;;;11.57;;
10535;SDS011;5316;49.538;8.352;2024-03-08T14:38:50;14.13;;;12.07;;
10535;SDS011;5316;49.538;8.352;2024-03-08T14:41:17;13.37;;;11.63;;
10535;SDS011;5316;49.538;8.352;2024-03-08T14:43:44;12.23;;;10.97;;